Time;durP1;ratioP1;P1;durP2;ratioP2;P2;SDS_P1;SDS_P2;PMS_P1;PMS_P2;Temp;Humidity;BMP_temperature;BMP_pressure;BME280_temperature;BME280_humidity;BME280_pressure;Samples;Min_cycle;Max_cycle;Signal;HPM_P1;HPM_P2
2020/12/25 14:16:28;;;;;;;720.83;671.40;;;;;;;;;;5091311;27;20631;-63
2020/12/25 14:18:54;;;;;;;866.70;804.13;;;;;;;;;;5094274;28;20192;-63
2020/12/25 14:21:30;;;;;;;869.67;807.57;;;;;;;;;;5091011;28;20955;-63
2020/12/25 14:23:57;;;;;;;859.87;797.97;;;;;;;;;;5095757;28;20196;-63
2020/12/25 14:26:23;;;;;;;816.47;758.13;;;;;;;;;;5092003;28;20236;-66
2020/12/25 14:28:51;;;;;;;850.03;789.50;;;;;;;;;;5090845;28;20170;-65
2020/12/25 14:31:17;;;;;;;838.07;775.23;;;;;;;;;;5093396;28;20651;-65
2020/12/25 14:33:44;;;;;;;902.70;829.13;;;;;;;;;;5087681;28;20182;-64
2020/12/25 14:36:14;;;;;;;826.37;765.83;;;;;;;;;;5097495;28;20181;-65
2020/12/25 14:38:40;;;;;;;864.93;801.70;;;;;;;;;;5092939;28;20192;-65
2020/12/25 14:41:07;;;;;;;816.77;758.13;;;;;;;;;;5097684;28;20189;-65
2020/12/25 14:43:34;;;;;;;847.67;785.90;;;;;;;;;;5094816;28;20230;-64
2020/12/25 14:46:01;;;;;;;861.43;792.23;;;;;;;;;;5090967;28;20274;-66
2020/12/25 14:48:27;;;;;;;837.17;778.27;;;;;;;;;;5095016;28;20263;-65
2020/12/25 14:50:54;;;;;;;864.40;798.23;;;;;;;;;;5089082;28;20213;-62
2020/12/25 14:53:21;;;;;;;905.07;833.97;;;;;;;;;;5082723;28;20588;-63
2020/12/25 14:55:50;;;;;;;873.57;809.87;;;;;;;;;;5089788;28;20224;-63
2020/12/25 14:58:17;;;;;;;799.00;743.37;;;;;;;;;;5094648;28;20186;-63
2020/12/25 15:00:46;;;;;;;861.57;794.23;;;;;;;;;;5090002;28;20307;-64
2020/12/25 15:03:13;;;;;;;841.57;780.07;;;;;;;;;;5094066;28;20181;-64
2020/12/25 15:05:42;;;;;;;814.30;750.33;;;;;;;;;;5094757;28;20690;-64
2020/12/25 15:08:09;;;;;;;728.93;673.97;;;;;;;;;;5093276;28;20190;-65
2020/12/25 15:10:35;;;;;;;612.80;569.53;;;;;;;;;;5092444;28;20260;-65
2020/12/25 15:13:02;;;;;;;834.57;770.67;;;;;;;;;;5096115;28;20531;-64
2020/12/25 15:15:31;;;;;;;790.53;733.50;;;;;;;;;;5099845;28;20217;-65
2020/12/25 15:18:00;;;;;;;813.97;753.50;;;;;;;;;;5098943;28;20188;-64
2020/12/25 15:20:28;;;;;;;767.43;712.53;;;;;;;;;;5091737;28;20662;-66
2020/12/25 15:22:55;;;;;;;797.90;740.87;;;;;;;;;;5098135;28;20510;-64
2020/12/25 15:25:22;;;;;;;903.47;830.27;;;;;;;;;;5089830;28;20178;-65
2020/12/25 15:27:49;;;;;;;869.37;800.73;;;;;;;;;;5080651;28;20286;-64
2020/12/25 15:30:18;;;;;;;910.63;839.67;;;;;;;;;;5077918;28;20183;-65
2020/12/25 15:32:57;;;;;;;838.37;776.83;;;;;;;;;;5082676;28;20186;-64
2020/12/25 15:35:42;;;;;;;928.43;850.07;;;;;;;;;;5071920;28;20225;-64
2020/12/25 15:38:09;;;;;;;972.07;889.50;;;;;;;;;;5078324;28;20199;-65
2020/12/25 15:40:35;;;;;;;902.73;831.70;;;;;;;;;;5079157;28;20178;-65
2020/12/25 15:43:02;;;;;;;927.03;848.80;;;;;;;;;;5078717;28;20183;-63
2020/12/25 15:45:31;;;;;;;984.40;900.47;;;;;;;;;;5083153;28;20178;-65
2020/12/25 15:48:00;;;;;;;884.67;812.27;;;;;;;;;;5073896;28;20203;-66
2020/12/25 15:50:27;;;;;;;903.13;832.43;;;;;;;;;;5080040;28;20677;-64
2020/12/25 15:52:54;;;;;;;889.83;820.70;;;;;;;;;;5081027;28;20189;-64
2020/12/25 15:55:25;;;;;;;873.23;807.13;;;;;;;;;;5075851;28;20245;-66
2020/12/25 15:57:52;;;;;;;819.40;758.23;;;;;;;;;;5079210;28;20621;-65
2020/12/25 16:00:19;;;;;;;809.90;751.10;;;;;;;;;;5082919;28;20181;-65
2020/12/25 16:02:46;;;;;;;840.80;776.90;;;;;;;;;;5081235;28;20205;-65
2020/12/25 16:05:14;;;;;;;786.80;733.80;;;;;;;;;;5077286;28;20374;-65
2020/12/25 16:07:41;;;;;;;750.10;699.40;;;;;;;;;;5075360;28;20208;-66
2020/12/25 16:10:08;;;;;;;849.53;786.93;;;;;;;;;;5079730;28;20179;-65
2020/12/25 16:12:35;;;;;;;789.03;732.20;;;;;;;;;;5084508;28;20179;-63
2020/12/25 16:15:09;;;;;;;966.13;880.03;;;;;;;;;;5081416;28;20261;-65
2020/12/25 16:17:36;;;;;;;864.70;788.77;;;;;;;;;;5074728;28;20186;-65
2020/12/25 16:20:03;;;;;;;815.73;756.23;;;;;;;;;;5079083;28;20186;-64
2020/12/25 16:22:29;;;;;;;927.63;852.03;;;;;;;;;;5078167;28;20186;-65
2020/12/25 16:24:56;;;;;;;823.53;762.07;;;;;;;;;;5080064;28;20190;-64
2020/12/25 16:27:25;;;;;;;850.20;781.83;;;;;;;;;;5081006;28;20174;-65
2020/12/25 16:29:51;;;;;;;738.10;687.20;;;;;;;;;;5075062;28;20186;-63
2020/12/25 16:32:18;;;;;;;761.77;710.07;;;;;;;;;;5080331;28;20699;-65
2020/12/25 16:34:45;;;;;;;906.63;835.50;;;;;;;;;;5079039;28;21032;-64
2020/12/25 16:37:12;;;;;;;765.17;707.93;;;;;;;;;;5069328;28;20187;-64
2020/12/25 16:39:39;;;;;;;686.40;638.37;;;;;;;;;;5078109;28;20749;-64
2020/12/25 16:42:06;;;;;;;802.53;744.40;;;;;;;;;;5082193;28;20235;-64
2020/12/25 16:44:33;;;;;;;766.37;712.00;;;;;;;;;;5078642;28;20194;-63
2020/12/25 16:47:00;;;;;;;735.73;684.73;;;;;;;;;;5081061;28;20265;-63
2020/12/25 16:49:27;;;;;;;834.17;768.93;;;;;;;;;;5078884;28;20293;-64
2020/12/25 16:51:57;;;;;;;832.17;764.23;;;;;;;;;;5076830;28;20174;-65
2020/12/25 16:54:24;;;;;;;914.70;838.70;;;;;;;;;;5079466;28;20218;-64
2020/12/25 16:56:52;;;;;;;896.13;824.37;;;;;;;;;;5081637;28;20178;-64
2020/12/25 16:59:21;;;;;;;960.10;879.83;;;;;;;;;;5077602;28;20204;-64
2020/12/25 17:01:48;;;;;;;967.57;887.30;;;;;;;;;;5081080;28;20179;-64
2020/12/25 17:04:15;;;;;;;981.53;899.37;;;;;;;;;;5082386;28;20175;-64
2020/12/25 17:06:41;;;;;;;955.13;870.77;;;;;;;;;;5081183;28;21009;-65
2020/12/25 17:09:09;;;;;;;943.23;864.17;;;;;;;;;;5081390;28;20177;-65
2020/12/25 17:11:36;;;;;;;958.07;880.37;;;;;;;;;;5079507;28;20559;-64
2020/12/25 17:14:03;;;;;;;941.03;861.37;;;;;;;;;;5080382;28;20185;-63
2020/12/25 17:16:36;;;;;;;1008.47;918.93;;;;;;;;;;5077107;28;20286;-65
2020/12/25 17:19:04;;;;;;;985.73;901.40;;;;;;;;;;5081636;28;20651;-64
2020/12/25 17:21:31;;;;;;;925.70;853.37;;;;;;;;;;5080440;28;20648;-64
2020/12/25 17:24:00;;;;;;;983.23;895.93;;;;;;;;;;5077488;28;20269;-65
2020/12/25 17:26:26;;;;;;;1020.30;927.97;;;;;;;;;;5075229;28;20186;-64
2020/12/25 17:28:53;;;;;;;1010.90;915.37;;;;;;;;;;5071953;28;20228;-65
2020/12/25 17:31:20;;;;;;;975.00;890.13;;;;;;;;;;5076114;28;20886;-64
2020/12/25 17:33:47;;;;;;;964.90;882.00;;;;;;;;;;5082212;28;20174;-64
2020/12/25 17:36:15;;;;;;;1027.40;931.57;;;;;;;;;;5075718;28;21570;-63
2020/12/25 17:38:42;;;;;;;970.47;886.50;;;;;;;;;;5075521;28;20174;-63
2020/12/25 17:41:09;;;;;;;938.37;861.90;;;;;;;;;;5070890;28;20187;-64
2020/12/25 17:43:39;;;;;;;980.50;894.60;;;;;;;;;;5078023;28;20224;-64
2020/12/25 17:46:07;;;;;;;957.47;880.63;;;;;;;;;;5076855;28;20219;-63
2020/12/25 17:48:34;;;;;;;981.77;899.50;;;;;;;;;;5075470;28;20956;-64
2020/12/25 17:51:00;;;;;;;937.23;859.57;;;;;;;;;;5083394;28;20285;-63
2020/12/25 17:53:27;;;;;;;985.37;901.00;;;;;;;;;;5076145;28;20178;-64
2020/12/25 17:55:53;;;;;;;919.90;844.70;;;;;;;;;;5078607;28;21388;-64
2020/12/25 17:58:20;;;;;;;975.60;889.53;;;;;;;;;;5079364;28;20184;-63
2020/12/25 18:00:47;;;;;;;982.20;892.77;;;;;;;;;;5072166;28;20183;-63
2020/12/25 18:03:13;;;;;;;933.73;855.27;;;;;;;;;;5079021;28;20210;-65
2020/12/25 18:05:40;;;;;;;976.97;889.43;;;;;;;;;;5076782;28;20689;-63
2020/12/25 18:08:07;;;;;;;923.80;852.97;;;;;;;;;;5071269;28;20185;-62
2020/12/25 18:10:33;;;;;;;867.87;797.77;;;;;;;;;;5079803;28;20269;-65
2020/12/25 18:13:00;;;;;;;925.20;853.27;;;;;;;;;;5076635;28;20175;-65
2020/12/25 18:15:26;;;;;;;969.20;890.13;;;;;;;;;;5076548;28;20230;-66
2020/12/25 18:17:53;;;;;;;990.60;902.30;;;;;;;;;;5073470;28;20180;-66
2020/12/25 18:20:20;;;;;;;1025.40;930.37;;;;;;;;;;5075717;28;20265;-64
2020/12/25 18:22:46;;;;;;;906.43;825.57;;;;;;;;;;5076638;28;20178;-64
2020/12/25 18:25:13;;;;;;;970.33;886.40;;;;;;;;;;5075853;28;20776;-65
2020/12/25 18:27:41;;;;;;;995.73;902.93;;;;;;;;;;5071197;28;20177;-65
2020/12/25 18:30:08;;;;;;;959.47;872.30;;;;;;;;;;5067199;28;20941;-65
2020/12/25 18:32:35;;;;;;;966.97;887.10;;;;;;;;;;5081019;28;20250;-65
2020/12/25 18:35:02;;;;;;;980.53;896.90;;;;;;;;;;5075065;28;20217;-66
2020/12/25 18:37:28;;;;;;;1023.17;929.10;;;;;;;;;;5077728;28;20247;-66
2020/12/25 18:39:55;;;;;;;1075.20;960.50;;;;;;;;;;5081400;28;20182;-64
2020/12/25 18:42:23;;;;;;;973.50;892.20;;;;;;;;;;5083655;28;20193;-64
2020/12/25 18:44:49;;;;;;;1020.47;920.83;;;;;;;;;;5086855;28;20776;-64
2020/12/25 18:47:16;;;;;;;1015.27;918.60;;;;;;;;;;5084000;28;20853;-64
2020/12/25 18:49:43;;;;;;;985.03;897.70;;;;;;;;;;5081991;28;20200;-64
2020/12/25 18:52:09;;;;;;;1007.77;914.70;;;;;;;;;;5079136;28;20277;-64
2020/12/25 18:54:36;;;;;;;1045.10;936.97;;;;;;;;;;5080565;28;20179;-65
2020/12/25 18:57:03;;;;;;;938.93;858.13;;;;;;;;;;5079309;28;20919;-63
2020/12/25 18:59:29;;;;;;;916.60;837.30;;;;;;;;;;5077801;28;20182;-65
2020/12/25 19:01:56;;;;;;;937.47;856.93;;;;;;;;;;5074852;28;20179;-65
2020/12/25 19:04:23;;;;;;;928.73;851.70;;;;;;;;;;5073907;28;20186;-66
2020/12/25 19:06:50;;;;;;;994.50;906.67;;;;;;;;;;5078352;28;20189;-64
2020/12/25 19:09:17;;;;;;;911.17;835.53;;;;;;;;;;5078765;28;20205;-64
2020/12/25 19:11:43;;;;;;;920.77;848.63;;;;;;;;;;5079904;28;20213;-66
2020/12/25 19:14:10;;;;;;;911.27;839.00;;;;;;;;;;5078292;28;20198;-64
2020/12/25 19:16:36;;;;;;;927.80;853.27;;;;;;;;;;5081506;28;20692;-64
2020/12/25 19:19:03;;;;;;;995.30;906.90;;;;;;;;;;5087293;28;20189;-65
2020/12/25 19:21:30;;;;;;;991.17;894.13;;;;;;;;;;5080545;28;20194;-64
2020/12/25 19:23:57;;;;;;;927.00;842.23;;;;;;;;;;5084653;28;20214;-65
2020/12/25 19:26:30;;;;;;;955.83;872.43;;;;;;;;;;5080641;28;20193;-66
2020/12/25 19:28:56;;;;;;;1006.83;914.93;;;;;;;;;;5080623;28;20358;-63
2020/12/25 19:31:49;;;;;;;960.60;871.10;;;;;;;;;;5078289;28;20471;-65
2020/12/25 19:34:17;;;;;;;1043.97;946.37;;;;;;;;;;5063552;28;20186;-63
2020/12/25 19:36:48;;;;;;;1020.20;933.20;;;;;;;;;;5075488;28;20220;-65
2020/12/25 19:39:15;;;;;;;1002.10;915.70;;;;;;;;;;5079395;28;20669;-64
2020/12/25 19:41:41;;;;;;;1034.73;938.73;;;;;;;;;;5071732;28;20294;-65
2020/12/25 19:44:08;;;;;;;983.27;900.90;;;;;;;;;;5076402;28;20186;-65
2020/12/25 19:46:36;;;;;;;1023.93;928.60;;;;;;;;;;5078554;28;20265;-64
2020/12/25 19:49:03;;;;;;;1146.73;999.90;;;;;;;;;;5076776;28;20186;-63
2020/12/25 19:51:30;;;;;;;1020.10;932.47;;;;;;;;;;5074447;28;20888;-64
2020/12/25 19:53:57;;;;;;;986.83;899.50;;;;;;;;;;5075315;28;20239;-65
2020/12/25 19:56:26;;;;;;;1033.73;941.27;;;;;;;;;;5082576;28;20231;-65
2020/12/25 19:58:54;;;;;;;1014.47;921.87;;;;;;;;;;5081430;28;20188;-64
2020/12/25 20:01:24;;;;;;;1024.37;924.73;;;;;;;;;;5076770;28;20711;-63
2020/12/25 20:03:51;;;;;;;1074.77;969.97;;;;;;;;;;5077661;28;20217;-63
2020/12/25 20:06:18;;;;;;;1093.13;974.03;;;;;;;;;;5078272;28;20999;-64
2020/12/25 20:08:45;;;;;;;1048.37;947.73;;;;;;;;;;5079478;28;20206;-65
2020/12/25 20:11:13;;;;;;;1115.13;989.47;;;;;;;;;;5082015;28;20218;-64
2020/12/25 20:13:39;;;;;;;1053.57;957.00;;;;;;;;;;5087420;28;20174;-65
2020/12/25 20:16:06;;;;;;;975.80;882.30;;;;;;;;;;5085583;28;20279;-65
2020/12/25 20:18:33;;;;;;;1080.10;971.20;;;;;;;;;;5077358;28;20274;-66
2020/12/25 20:21:00;;;;;;;1038.03;937.57;;;;;;;;;;5077677;28;20307;-65
2020/12/25 20:23:27;;;;;;;949.20;867.97;;;;;;;;;;5084858;28;20176;-64
2020/12/25 20:25:53;;;;;;;889.47;814.20;;;;;;;;;;5076135;28;20587;-66
2020/12/25 20:28:20;;;;;;;889.47;812.53;;;;;;;;;;5079240;28;20636;-65
2020/12/25 20:30:47;;;;;;;742.67;687.37;;;;;;;;;;5086773;28;20197;-65
2020/12/25 20:33:14;;;;;;;908.60;831.83;;;;;;;;;;5080511;28;20600;-66
2020/12/25 20:35:40;;;;;;;870.37;799.00;;;;;;;;;;5074807;28;20696;-65
2020/12/25 20:38:07;;;;;;;889.50;812.50;;;;;;;;;;5077049;28;20193;-65
2020/12/25 20:40:34;;;;;;;889.37;814.97;;;;;;;;;;5077420;28;20193;-63
2020/12/25 20:43:00;;;;;;;933.53;852.00;;;;;;;;;;5074045;28;21141;-63
2020/12/25 20:45:27;;;;;;;915.50;836.37;;;;;;;;;;5080017;28;20186;-64
2020/12/25 20:47:54;;;;;;;927.87;840.93;;;;;;;;;;5075292;28;20198;-64
2020/12/25 20:50:21;;;;;;;925.37;850.57;;;;;;;;;;5080436;28;20511;-65
2020/12/25 20:52:47;;;;;;;995.73;903.67;;;;;;;;;;5082892;28;20197;-64
2020/12/25 20:55:14;;;;;;;1040.47;941.17;;;;;;;;;;5073912;28;20218;-63
2020/12/25 20:57:42;;;;;;;983.93;891.23;;;;;;;;;;5079343;28;20216;-65
2020/12/25 21:00:09;;;;;;;1023.67;928.63;;;;;;;;;;5075704;28;20622;-65
2020/12/25 21:02:36;;;;;;;1079.47;967.53;;;;;;;;;;5080203;28;20309;-65
2020/12/25 21:05:03;;;;;;;1049.23;946.50;;;;;;;;;;5079383;28;20295;-63
2020/12/25 21:07:31;;;;;;;922.10;847.73;;;;;;;;;;5072661;28;20201;-64
2020/12/25 21:09:58;;;;;;;946.87;865.93;;;;;;;;;;5074460;28;20186;-65
2020/12/25 21:12:25;;;;;;;962.37;879.20;;;;;;;;;;5071074;28;20995;-65
2020/12/25 21:14:51;;;;;;;927.70;853.30;;;;;;;;;;5084280;28;20649;-64
2020/12/25 21:17:18;;;;;;;1042.50;941.87;;;;;;;;;;5079323;28;20186;-64
2020/12/25 21:19:45;;;;;;;931.63;852.93;;;;;;;;;;5083607;28;20375;-65
2020/12/25 21:22:11;;;;;;;1005.47;908.80;;;;;;;;;;5082836;28;20574;-65
2020/12/25 21:24:38;;;;;;;920.67;842.27;;;;;;;;;;5078221;28;20174;-65
2020/12/25 21:27:05;;;;;;;955.07;875.47;;;;;;;;;;5080496;28;20174;-65
2020/12/25 21:29:32;;;;;;;964.43;882.87;;;;;;;;;;5073399;28;20178;-64
2020/12/25 21:31:59;;;;;;;1011.00;911.87;;;;;;;;;;5080870;28;20171;-64
2020/12/25 21:34:26;;;;;;;971.00;880.40;;;;;;;;;;5081655;28;20179;-64
2020/12/25 21:36:52;;;;;;;1003.77;914.17;;;;;;;;;;5078283;28;20187;-64
2020/12/25 21:39:19;;;;;;;1032.80;923.97;;;;;;;;;;5078225;28;20747;-64
2020/12/25 21:41:46;;;;;;;988.43;902.53;;;;;;;;;;5077579;28;20186;-65
2020/12/25 21:44:15;;;;;;;1118.70;998.43;;;;;;;;;;5079503;28;20600;-65
2020/12/25 21:46:42;;;;;;;971.40;889.03;;;;;;;;;;5076278;28;20186;-65
2020/12/25 21:49:09;;;;;;;1071.00;962.20;;;;;;;;;;5081017;28;20182;-65
2020/12/25 21:51:35;;;;;;;994.90;909.37;;;;;;;;;;5078256;28;20197;-65
2020/12/25 21:54:02;;;;;;;1041.17;942.00;;;;;;;;;;5078453;28;20185;-64
2020/12/25 21:56:32;;;;;;;972.07;886.60;;;;;;;;;;5077956;28;20209;-66
2020/12/25 21:58:59;;;;;;;950.73;865.53;;;;;;;;;;5080954;28;20181;-66
2020/12/25 22:01:26;;;;;;;1026.10;922.13;;;;;;;;;;5077497;28;20267;-65
2020/12/25 22:03:53;;;;;;;979.33;894.57;;;;;;;;;;5080078;28;20193;-64
2020/12/25 22:06:23;;;;;;;961.67;877.30;;;;;;;;;;5082875;28;20180;-64
2020/12/25 22:08:52;;;;;;;892.43;820.73;;;;;;;;;;5074937;28;20182;-64
2020/12/25 22:11:23;;;;;;;965.87;885.90;;;;;;;;;;5076178;28;20211;-64
2020/12/25 22:13:50;;;;;;;967.40;887.07;;;;;;;;;;5083365;28;20669;-64
2020/12/25 22:16:18;;;;;;;934.60;857.90;;;;;;;;;;5080012;28;20630;-65
2020/12/25 22:19:02;;;;;;;906.00;827.43;;;;;;;;;;5077400;28;20888;-65
2020/12/25 22:21:32;;;;;;;855.57;793.47;;;;;;;;;;5079664;28;20175;-65
2020/12/25 22:24:00;;;;;;;819.37;759.70;;;;;;;;;;5075400;28;20183;-64
2020/12/25 22:26:27;;;;;;;768.60;715.33;;;;;;;;;;5084435;28;20184;-64
2020/12/25 22:28:53;;;;;;;881.97;811.43;;;;;;;;;;5079220;28;20180;-65
2020/12/25 22:31:21;;;;;;;798.57;738.93;;;;;;;;;;5078107;28;20192;-64
2020/12/25 22:33:49;;;;;;;778.40;723.33;;;;;;;;;;5069519;28;20294;-64
2020/12/25 22:36:18;;;;;;;807.37;749.03;;;;;;;;;;5075846;28;20230;-64
2020/12/25 22:38:45;;;;;;;857.53;794.40;;;;;;;;;;5078894;28;20179;-64
2020/12/25 22:41:11;;;;;;;928.03;846.30;;;;;;;;;;5068489;28;20246;-64
2020/12/25 22:43:38;;;;;;;956.47;868.50;;;;;;;;;;5072471;28;20178;-65
2020/12/25 22:46:05;;;;;;;737.87;685.43;;;;;;;;;;5072032;28;20185;-63
2020/12/25 22:48:32;;;;;;;822.37;759.37;;;;;;;;;;5074960;28;20186;-64
2020/12/25 22:50:59;;;;;;;726.53;677.63;;;;;;;;;;5072425;28;20192;-65
2020/12/25 22:53:25;;;;;;;859.03;794.70;;;;;;;;;;5076472;28;21218;-66
2020/12/25 22:55:52;;;;;;;883.20;806.43;;;;;;;;;;5074487;28;20745;-64
2020/12/25 22:58:19;;;;;;;831.77;764.80;;;;;;;;;;5078206;28;20181;-65
2020/12/25 23:00:45;;;;;;;853.50;786.77;;;;;;;;;;5070756;28;20274;-63
2020/12/25 23:03:12;;;;;;;832.50;770.33;;;;;;;;;;5077753;28;20612;-65
2020/12/25 23:05:39;;;;;;;839.03;767.77;;;;;;;;;;5077421;28;20189;-64
2020/12/25 23:08:06;;;;;;;847.93;782.53;;;;;;;;;;5077375;28;20196;-65
2020/12/25 23:10:33;;;;;;;903.40;827.30;;;;;;;;;;5078983;28;20182;-64
2020/12/25 23:12:59;;;;;;;945.57;859.50;;;;;;;;;;5077333;28;20177;-64
2020/12/25 23:15:26;;;;;;;835.33;770.47;;;;;;;;;;5079941;28;20706;-64
2020/12/25 23:18:09;;;;;;;851.90;786.63;;;;;;;;;;5081573;28;20204;-66
2020/12/25 23:20:36;;;;;;;829.40;764.93;;;;;;;;;;5080211;28;20190;-64
2020/12/25 23:23:02;;;;;;;955.20;873.27;;;;;;;;;;5077313;28;20262;-65
2020/12/25 23:25:29;;;;;;;894.87;823.87;;;;;;;;;;5069267;28;20190;-65
2020/12/25 23:27:56;;;;;;;844.33;778.20;;;;;;;;;;5075669;28;20319;-66
2020/12/25 23:30:23;;;;;;;727.13;671.40;;;;;;;;;;5076188;28;20189;-65
2020/12/25 23:32:50;;;;;;;804.17;745.37;;;;;;;;;;5077672;28;20185;-64
2020/12/25 23:35:17;;;;;;;792.20;723.87;;;;;;;;;;5080049;28;20221;-63
2020/12/25 23:37:44;;;;;;;941.50;854.47;;;;;;;;;;5079204;28;20254;-65
2020/12/25 23:40:10;;;;;;;816.03;754.87;;;;;;;;;;5074935;28;20185;-64
2020/12/25 23:42:37;;;;;;;865.17;797.93;;;;;;;;;;5075086;28;20186;-62
2020/12/25 23:45:04;;;;;;;881.77;809.17;;;;;;;;;;5077063;28;20364;-65
2020/12/25 23:47:32;;;;;;;761.23;709.07;;;;;;;;;;5076053;28;20184;-63
2020/12/25 23:49:59;;;;;;;800.53;740.17;;;;;;;;;;5080943;28;20746;-67
2020/12/25 23:52:26;;;;;;;927.53;839.47;;;;;;;;;;5074811;28;20561;-65
2020/12/25 23:54:53;;;;;;;729.57;669.53;;;;;;;;;;5080189;28;20208;-63
2020/12/25 23:57:20;;;;;;;727.00;669.53;;;;;;;;;;5081898;28;20277;-65
2020/12/25 23:59:47;;;;;;;791.63;720.90;;;;;;;;;;5079748;28;20917;-63
